Latest Weather Observations for Weipa

IDQ60801

Issued at 7:52 pm EST Wednesday 12 August 2020 (issued every 10 minutes, with the page automatically refreshed every 10 minutes)

About weather observations | Map of weather stations | Latest weather observations for QLD | Other Formats
Station Details ID: 027045 Name: WEIPA AERO Lat: -12.68 Lon: 141.92 Height: 17.96 m
Data from the previous 72 hours. | See also: Recent months at Weipa
Date/Time
EST
Temp
°C
App
Temp
°C
Dew
Point
°C
Rel
Hum
%
Delta-T
°C
Wind Press
QNH
hPa
Press
MSL
hPa
Rain since
9am
mm
Dir  Spd
km/h
Gust
km/h
Spd
kts
Gust
kts
12/07:30pm 26.2 29.5 21.4 75 3.2 SW 6 7 3 4 1012.1 1012.0 0.0
12/07:00pm 26.9 31.3 22.1 75 3.2 W 2 7 1 4 1011.7 1011.6 0.0
12/06:30pm 27.5 30.8 21.8 71 3.8 WSW 7 11 4 6 1011.3 1011.2 0.0
12/06:00pm 28.3 30.6 21.3 65 4.7 WSW 11 15 6 8 1011.0 1010.9 0.0
12/05:30pm 29.2 30.5 20.1 58 6.0 WSW 13 20 7 11 1011.1 1011.0 0.0
12/05:00pm 30.1 30.6 20.1 55 6.6 W 17 22 9 12 1010.9 1010.8 0.0
12/04:30pm 31.5 32.8 20.1 50 7.5 WSW 13 19 7 10 1010.9 1010.8 0.0
12/04:00pm 31.4 32.2 20.7 53 7.1 W 17 24 9 13 1010.8 1010.7 0.0
12/03:30pm 33.2 32.4 15.2 33 11.2 SE 13 20 7 11 1011.0 1010.9 0.0
12/03:00pm 33.1 32.9 15.6 35 10.9 E 11 17 6 9 1011.2 1011.1 0.0
12/02:30pm 33.4 33.7 17.1 37 10.4 ESE 11 26 6 14 1011.5 1011.4 0.0
12/02:00pm 32.3 31.7 16.6 39 9.9 SE 15 22 8 12 1012.1 1012.0 0.0
12/01:30pm 34.0 32.9 17.2 36 10.8 E 19 32 10 17 1012.5 1012.4 0.0
12/01:00pm 32.3 31.1 17.0 40 9.7 ENE 19 28 10 15 1013.1 1013.0 0.0
12/12:30pm 32.1 30.9 17.6 42 9.3 ENE 20 28 11 15 1013.7 1013.6 0.0
12/12:00pm 31.7 31.2 17.9 43 8.9 E 17 28 9 15 1014.3 1014.2 0.0
12/11:30am 30.9 29.8 18.6 48 8.0 ESE 22 30 12 16 1015.0 1014.9 0.0
12/11:00am 30.2 29.8 19.3 52 7.1 E 20 28 11 15 1015.5 1015.4 0.0
12/10:30am 29.4 29.2 19.7 56 6.3 E 20 26 11 14 1015.9 1015.8 0.0
12/10:00am 28.3 28.1 19.8 60 5.5 E 20 26 11 14 1016.2 1016.1 0.0
12/09:30am 27.3 26.5 20.1 64 4.7 E 24 28 13 15 1016.3 1016.2 0.0
12/09:00am 26.7 26.8 20.3 68 4.2 E 20 28 11 15 1016.2 1016.1 0.0
12/08:30am 25.6 26.9 20.8 75 3.2 ESE 15 19 8 10 1015.9 1015.8 0.0
12/08:00am 24.6 26.1 20.5 78 2.7 ESE 13 17 7 9 1015.8 1015.7 0.0
12/07:30am 24.5 26.4 20.6 79 2.5 ESE 11 15 6 8 1015.5 1015.4 0.0
12/07:00am 23.5 26.3 20.4 83 2.0 ESE 6 9 3 5 1015.2 1015.1 0.0
12/06:30am 24.0 28.1 20.7 82 2.2 CALM 0 0 0 0 1014.9 1014.8 0.0
12/06:00am 24.0 26.8 20.5 81 2.3 E 6 7 3 4 1014.6 1014.5 0.0
12/05:30am 24.1 26.8 20.6 81 2.3 E 7 9 4 5 1014.5 1014.4 0.0
12/05:00am 24.0 26.7 20.7 82 2.2 ESE 7 9 4 5 1014.2 1014.1 0.0
12/04:30am 24.0 26.7 20.7 82 2.2 SE 7 9 4 5 1014.1 1014.0 0.0
12/04:00am 24.1 26.4 20.6 81 2.3 E 9 13 5 7 1014.2 1014.1 0.0
12/03:30am 23.9 26.9 20.8 83 2.0 ENE 6 11 3 6 1014.3 1014.2 0.0
12/03:00am 23.9 25.8 20.6 82 2.2 E 11 15 6 8 1014.3 1014.2 0.0
12/02:30am 24.1 27.1 20.8 82 2.2 E 6 13 3 7 1014.3 1014.2 0.0
12/02:00am 24.1 26.1 20.8 82 2.2 ENE 11 13 6 7 1014.5 1014.4 0.0
12/01:30am 24.4 27.1 20.7 80 2.4 E 7 9 4 5 1014.7 1014.6 0.0
12/01:00am 24.9 27.8 21.0 79 2.6 ENE 7 9 4 5 1014.9 1014.8 0.0
12/12:30am 24.8 28.0 21.7 83 2.1 E 7 7 4 4 1015.1 1015.0 0.0
12/12:00am 25.1 28.4 21.8 82 2.2 E 7 7 4 4 1015.1 1015.0 0.0
 
Date/Time
EST
Temp
°C
App
Temp
°C
Dew
Point
°C
Rel
Hum
%
Delta-T
°C
Wind Press
QNH
hPa
Press
MSL
hPa
Rain since
9am
mm
Dir  Spd
km/h
Gust
km/h
Spd
kts
Gust
kts
11/11:30pm 25.1 28.5 21.6 81 2.3 SE 6 7 3 4 1015.2 1015.1 0.0
11/11:00pm 25.3 28.2 21.8 81 2.3 SE 9 13 5 7 1015.0 1014.9 0.0
11/10:30pm 26.1 29.7 22.4 80 2.5 SSE 7 11 4 6 1015.1 1015.0 0.0
11/10:00pm 26.2 30.8 22.5 80 2.5 SW 2 6 1 3 1014.9 1014.8 0.0
11/09:30pm 26.0 30.9 22.3 80 2.5 CALM 0 6 0 3 1014.9 1014.8 0.0
11/09:00pm 26.5 30.2 22.3 78 2.8 W 6 9 3 5 1014.7 1014.6 0.0
11/08:30pm 26.7 31.2 22.3 77 3.0 WNW 2 6 1 3 1014.4 1014.3 0.0
11/08:00pm 26.7 29.8 22.1 76 3.1 W 9 13 5 7 1013.8 1013.7 0.0
11/07:30pm 26.9 30.5 22.3 76 3.1 WSW 7 13 4 7 1013.2 1013.1 0.0
11/07:00pm 27.1 30.0 22.5 76 3.1 W 11 17 6 9 1012.7 1012.6 0.0
11/06:30pm 29.6 31.9 19.9 56 6.4 NE 7 11 4 6 1012.4 1012.3 0.0
11/06:00pm 30.8 33.0 19.5 51 7.4 E 7 11 4 6 1011.9 1011.8 0.0
11/05:30pm 31.3 31.8 19.3 49 7.8 E 15 20 8 11 1011.7 1011.6 0.0
11/05:00pm 32.1 33.7 20.0 48 8.0 NE 11 15 6 8 1011.6 1011.5 0.0
11/04:30pm 32.5 32.7 19.4 46 8.6 ESE 17 24 9 13 1011.5 1011.4 0.0
11/04:00pm 31.2 31.9 18.9 48 8.0 ENE 13 20 7 11 1011.5 1011.4 0.0
11/03:30pm 31.1 32.1 19.4 49 7.7 ENE 13 17 7 9 1011.5 1011.4 0.0
11/03:00pm 31.0 31.0 19.7 51 7.4 E 19 24 10 13 1011.8 1011.7 0.0
11/02:30pm 31.4 32.0 19.4 49 7.9 E 15 20 8 11 1012.2 1012.1 0.0
11/02:00pm 31.1 31.9 19.1 48 7.8 SE 13 20 7 11 1012.4 1012.3 0.0
11/01:30pm 30.6 30.5 19.6 51 7.2 E 19 24 10 13 1012.9 1012.8 0.0
11/01:00pm 29.9 30.2 19.6 54 6.7 E 17 24 9 13 1013.4 1013.3 0.0
11/12:30pm 30.0 30.1 20.0 55 6.6 E 19 32 10 17 1013.7 1013.6 0.0
11/12:00pm 29.2 29.0 19.8 57 6.2 ENE 20 30 11 16 1014.4 1014.3 0.0
11/11:30am 28.4 27.9 19.9 60 5.6 E 22 30 12 16 1014.9 1014.8 0.0
11/11:00am 27.9 26.9 19.7 61 5.3 E 24 30 13 16 1015.2 1015.1 0.0
11/10:30am 28.4 28.8 20.9 64 5.0 E 20 28 11 15 1015.4 1015.3 0.0
11/10:00am 27.2 27.3 20.3 66 4.5 E 20 26 11 14 1015.4 1015.3 0.0
11/09:30am 27.0 27.9 20.8 69 4.1 ESE 17 22 9 12 1015.4 1015.3 0.0
11/09:00am 26.0 26.8 20.6 72 3.5 ESE 17 20 9 11 1015.5 1015.4 0.2
11/08:30am 25.4 26.7 20.9 76 3.0 ESE 15 19 8 10 1015.2 1015.1 0.2
11/08:00am 24.7 26.2 20.6 78 2.7 SE 13 17 7 9 1014.9 1014.8 0.2
11/07:30am 24.3 27.2 20.6 80 2.4 SSE 6 7 3 4 1014.8 1014.7 0.2
11/07:00am 24.3 26.9 20.4 79 2.5 SE 7 11 4 6 1014.5 1014.4 0.2
11/06:30am 24.6 26.8 20.3 77 2.8 E 9 13 5 7 1014.0 1013.9 0.2
11/06:00am 24.7 27.0 20.6 78 2.7 E 9 13 5 7 1013.9 1013.8 0.2
11/05:30am 24.5 26.9 20.8 80 2.4 ESE 9 13 5 7 1013.6 1013.5 0.2
11/05:00am 24.2 26.6 20.9 82 2.2 E 9 11 5 6 1013.1 1013.0 0.2
11/04:30am 24.4 26.6 21.1 82 2.2 E 11 15 6 8 1012.8 1012.7 0.2
11/04:00am 24.8 27.3 21.1 80 2.4 E 9 11 5 6 1012.7 1012.6 0.2
11/03:30am 25.1 27.6 21.0 78 2.7 E 9 11 5 6 1012.9 1012.8 0.2
11/03:00am 25.2 27.7 21.1 78 2.7 E 9 13 5 7 1013.0 1012.9 0.2
11/02:30am 25.2 27.7 21.1 78 2.7 ENE 9 13 5 7 1013.0 1012.9 0.2
11/02:00am 25.4 26.4 21.1 77 2.8 E 17 20 9 11 1013.0 1012.9 0.2
11/01:30am 25.4 27.4 21.5 79 2.6 E 13 15 7 8 1013.1 1013.0 0.2
11/01:00am 25.3 28.7 21.6 80 2.5 E 6 9 3 5 1013.2 1013.1 0.2
11/12:30am 25.0 29.0 21.3 80 2.4 N 2 7 1 4 1013.2 1013.1 0.2
11/12:00am 25.2 29.6 21.3 79 2.6 CALM 0 2 0 1 1013.2 1013.1 0.2
 
Date/Time
EST
Temp
°C
App
Temp
°C
Dew
Point
°C
Rel
Hum
%
Delta-T
°C
Wind Press
QNH
hPa
Press
MSL
hPa
Rain since
9am
mm
Dir  Spd
km/h
Gust
km/h
Spd
kts
Gust
kts
10/11:30pm 24.9 29.1 21.0 79 2.6 CALM 0 0 0 0 1013.3 1013.2 0.2
10/11:00pm 24.6 28.8 20.9 80 2.4 CALM 0 0 0 0 1013.3 1013.2 0.2
10/10:30pm 24.8 29.0 20.9 79 2.6 CALM 0 6 0 3 1013.3 1013.2 0.2
10/10:00pm 25.0 29.2 20.9 78 2.7 CALM 0 0 0 0 1013.3 1013.2 0.2
10/09:30pm 24.9 29.0 20.8 78 2.7 CALM 0 4 0 2 1013.2 1013.1 0.2
10/09:00pm 25.0 28.8 20.9 78 2.7 N 2 6 1 3 1013.0 1012.9 0.2
10/08:30pm 25.2 28.7 21.1 78 2.7 NNE 4 7 2 4 1012.8 1012.7 0.2
10/08:00pm 25.3 28.3 20.8 76 3.0 N 6 7 3 4 1012.7 1012.6 0.2
10/07:30pm 25.8 28.7 21.0 75 3.2 NW 7 9 4 5 1012.5 1012.4 0.2
10/07:00pm 26.0 28.1 21.0 74 3.3 NNW 11 11 6 6 1012.2 1012.1 0.2
10/06:30pm 26.0 28.0 20.8 73 3.4 N 11 13 6 7 1012.1 1012.0 0.2
10/06:00pm 27.3 29.8 21.1 69 4.1 WNW 9 15 5 8 1011.8 1011.7 0.2
10/05:30pm 27.0 29.0 20.8 69 4.1 WNW 11 15 6 8 1011.6 1011.5 0.2
10/05:00pm 27.0 28.9 20.6 68 4.2 WNW 11 15 6 8 1011.2 1011.1 0.2
10/04:30pm 27.6 30.6 21.2 68 4.3 WNW 7 11 4 6 1011.1 1011.0 0.2
10/04:00pm 27.4 30.1 21.4 70 4.0 WNW 9 11 5 6 1011.0 1010.9 0.2
10/03:30pm 28.5 30.1 20.8 63 5.1 WSW 13 20 7 11 1010.8 1010.7 0.2
10/03:00pm 29.8 32.5 20.6 57 6.1 N 7 15 4 8 1010.9 1010.8 0.2
10/02:30pm 30.1 33.3 21.2 59 6.0 S 6 11 3 6 1011.2 1011.1 0.2
10/02:00pm 31.3 34.3 21.2 55 6.8 N 7 13 4 7 1011.4 1011.3 0.2
10/01:30pm 31.0 33.3 20.6 54 6.9 ESE 9 15 5 8 1011.8 1011.7 0.2
10/01:00pm 30.8 32.2 20.4 54 6.9 ENE 13 20 7 11 1012.2 1012.1 0.2
10/12:30pm 31.0 32.0 20.3 53 7.1 E 15 20 8 11 1012.6 1012.5 0.2
10/12:00pm 30.0 30.5 20.0 55 6.6 ESE 17 22 9 12 1013.0 1012.9 0.2
10/11:30am 29.3 29.7 19.9 57 6.2 ENE 17 30 9 16 1013.5 1013.4 0.2
10/11:00am 28.5 29.4 20.0 60 5.6 E 15 26 8 14 1013.8 1013.7 0.2
10/10:30am 26.6 27.6 17.7 58 5.6 SE 9 15 5 8 1014.3 1014.2 0.0
10/10:00am 25.9 25.9 16.2 55 6.0 SE 11 13 6 7 1014.6 1014.5 0.0
10/09:30am 25.3 24.3 14.7 51 6.3 ESE 13 15 7 8 1014.5 1014.4 0.0
10/09:00am 24.3 24.5 15.8 59 5.1 ESE 9 13 5 7 1014.4 1014.3 0.0
10/08:30am 23.3 23.5 14.8 59 5.0 SSE 7 11 4 6 1014.1 1014.0 0.0
10/08:00am 22.8 23.5 15.6 64 4.3 SSE 6 7 3 4 1014.0 1013.9 0.0
10/07:30am 22.4 23.6 17.3 73 3.1 S 7 9 4 5 1013.6 1013.5 0.0
10/07:00am 22.6 24.5 18.6 78 2.5 S 6 9 3 5 1013.4 1013.3 0.0
10/06:30am 22.5 26.0 19.5 83 1.9 CALM 0 0 0 0 1013.2 1013.1 0.0
10/06:00am 22.2 25.7 19.6 85 1.7 CALM 0 0 0 0 1012.8 1012.7 0.0
10/05:30am 22.1 24.5 19.6 86 1.6 SE 6 7 3 4 1012.5 1012.4 0.0
10/05:00am 22.1 25.0 19.8 87 1.5 SE 4 7 2 4 1012.3 1012.2 0.0
10/04:30am 21.4 24.9 19.5 89 1.2 CALM 0 4 0 2 1012.2 1012.1 0.0
10/04:13am 21.2 23.9 19.5 90 1.1 S 4 7 2 4 1012.3 1012.2 0.0
10/04:00am 20.9 23.5 19.2 90 1.1 SSE 4 9 2 5 1012.4 1012.3 0.0
10/03:52am 20.9 23.1 19.2 90 1.1 SE 6 9 3 5 1012.4 1012.3 0.0
10/03:48am 21.0 23.2 19.3 90 1.1 SE 6 9 3 5 1012.4 1012.3 0.0
10/03:35am 21.0 22.6 19.1 89 1.2 SSE 9 13 5 7 1012.5 1012.4 0.0
10/03:30am 21.0 22.7 19.3 90 1.1 SSE 9 15 5 8 1012.5 1012.4 0.0
10/03:00am 21.6 22.1 19.3 87 1.5 S 15 22 8 12 1012.7 1012.6 0.0
10/02:58am 21.6 22.1 19.2 86 1.5 S 15 22 8 12 1012.7 1012.6 0.0
10/02:56am 21.8 22.2 19.0 84 1.8 S 15 22 8 12 1012.7 1012.6 0.0
10/02:30am 22.9 23.9 17.8 73 3.2 S 9 15 5 8 1012.8 1012.7 0.0
10/02:00am 23.2 25.3 18.9 77 2.7 SSE 6 9 3 5 1012.9 1012.8 0.0
10/01:30am 24.3 26.1 17.5 66 4.2 E 4 9 2 5 1013.1 1013.0 0.0
10/01:00am 24.5 26.1 17.0 63 4.6 SE 4 9 2 5 1013.4 1013.3 0.0
10/12:30am 25.0 26.9 17.7 64 4.6 NE 4 7 2 4 1013.6 1013.5 0.0
10/12:00am 24.7 26.2 17.7 65 4.4 SSW 6 9 3 5 1013.6 1013.5 0.0
 
Date/Time
EST
Temp
°C
App
Temp
°C
Dew
Point
°C
Rel
Hum
%
Delta-T
°C
Wind Press
QNH
hPa
Press
MSL
hPa
Rain since
9am
mm
Dir  Spd
km/h
Gust
km/h
Spd
kts
Gust
kts
09/11:30pm 24.9 26.4 17.6 64 4.6 S 6 7 3 4 1013.8 1013.7 0.0
09/11:00pm 25.3 27.2 17.7 62 4.8 SSE 4 7 2 4 1013.8 1013.7 0.0
09/10:30pm 25.4 26.5 18.1 64 4.6 SE 9 13 5 7 1013.7 1013.6 0.0
09/10:00pm 25.6 26.8 18.3 64 4.6 ENE 9 13 5 7 1013.8 1013.7 0.0
09/09:30pm 25.4 26.3 18.3 65 4.5 ENE 11 17 6 9 1013.5 1013.4 0.0
09/09:00pm 25.2 26.3 17.9 64 4.6 SSW 9 15 5 8 1012.8 1012.7 0.0
09/08:30pm 25.2 27.2 20.0 73 3.4 SSW 9 13 5 7 1012.6 1012.5 0.0
09/08:00pm 25.5 27.3 20.3 73 3.4 SW 11 17 6 9 1012.2 1012.1 0.0

Other formats

Comma delimited format used in spreadsheet applications
http://www.bom.gov.au/fwo/IDQ60801/IDQ60801.94170.axf

JavaScript Object Notation format (JSON) in row-major order
http://www.bom.gov.au/fwo/IDQ60801/IDQ60801.94170.json

Data quality

Most of these data are generated automatically and are frequently updated. Quality checks on data are not normally performed. It is possible for incorrect values to appear. Refer to information at About Latest Weather Observations and please check the disclaimer before using these data.